Time;durP1;ratioP1;P1;durP2;ratioP2;P2;SDS_P1;SDS_P2;PMS_P1;PMS_P2;Temp;Humidity;BMP_temperature;BMP_pressure;BME280_temperature;BME280_humidity;BME280_pressure;Samples;Min_cycle;Max_cycle;Signal;HPM_P1;HPM_P2
2023/03/24 00:01:17;;;;;;;109.78;43.78;;;;;;;;;;5098433;28;20026;-77
2023/03/24 00:03:44;;;;;;;105.85;44.42;;;;;;;;;;5115642;28;20058;-77
2023/03/24 00:06:12;;;;;;;106.40;45.22;;;;;;;;;;5098447;28;20407;-77
2023/03/24 00:08:38;;;;;;;105.03;43.92;;;;;;;;;;5099047;28;20039;-77
2023/03/24 00:11:08;;;;;;;109.85;46.40;;;;;;;;;;5132854;27;20030;-77
2023/03/24 00:13:37;;;;;;;104.88;44.47;;;;;;;;;;5115460;28;20027;-78
2023/03/24 00:16:08;;;;;;;112.50;44.83;;;;;;;;;;5116491;28;20114;-77
2023/03/24 00:18:34;;;;;;;104.55;43.22;;;;;;;;;;5114950;28;20371;-78
2023/03/24 00:20:59;;;;;;;102.25;42.28;;;;;;;;;;5098601;28;20122;-77
2023/03/24 00:23:26;;;;;;;104.15;41.75;;;;;;;;;;5116330;28;20095;-77
2023/03/24 00:26:06;;;;;;;100.40;40.75;;;;;;;;;;5115020;28;20036;-77
2023/03/24 00:28:32;;;;;;;105.18;42.08;;;;;;;;;;5098630;28;20354;-77
2023/03/24 00:30:59;;;;;;;108.90;42.75;;;;;;;;;;5115270;28;20110;-78
2023/03/24 00:33:24;;;;;;;96.38;40.30;;;;;;;;;;5131801;27;20418;-77
2023/03/24 00:35:50;;;;;;;96.03;40.30;;;;;;;;;;5116072;28;20059;-77
2023/03/24 00:38:15;;;;;;;89.90;38.80;;;;;;;;;;5094438;28;20326;-77
2023/03/24 00:40:47;;;;;;;92.63;38.67;;;;;;;;;;5097568;28;20094;-77
2023/03/24 00:43:13;;;;;;;91.45;38.97;;;;;;;;;;5097897;28;20369;-77
2023/03/24 00:45:44;;;;;;;94.47;40.63;;;;;;;;;;5114698;28;20028;-77
2023/03/24 00:48:10;;;;;;;95.82;39.53;;;;;;;;;;5098253;28;20150;-76
2023/03/24 00:50:36;;;;;;;97.53;40.10;;;;;;;;;;5097532;28;20575;-77
2023/03/24 00:53:01;;;;;;;87.25;37.20;;;;;;;;;;5097598;28;20056;-77
2023/03/24 00:55:27;;;;;;;94.75;39.15;;;;;;;;;;5097301;28;20031;-77
2023/03/24 00:57:53;;;;;;;89.35;37.90;;;;;;;;;;5097521;28;20035;-77
2023/03/24 01:00:22;;;;;;;101.38;43.78;;;;;;;;;;5114435;28;20030;-77
2023/03/24 01:02:52;;;;;;;99.72;42.72;;;;;;;;;;5114420;28;20027;-77
2023/03/24 01:05:19;;;;;;;104.63;42.53;;;;;;;;;;5114129;28;20346;-76
2023/03/24 01:07:45;;;;;;;93.85;40.47;;;;;;;;;;5131115;27;20096;-77
2023/03/24 01:10:12;;;;;;;91.28;39.17;;;;;;;;;;5097591;28;20015;-77
2023/03/24 01:12:37;;;;;;;90.93;38.60;;;;;;;;;;5131429;27;20027;-77
2023/03/24 01:15:10;;;;;;;88.78;39.08;;;;;;;;;;5115283;28;20020;-77
2023/03/24 01:17:36;;;;;;;90.47;38.47;;;;;;;;;;5131307;27;20110;-76
2023/03/24 01:20:07;;;;;;;82.80;37.15;;;;;;;;;;5114047;28;20099;-77
2023/03/24 01:22:36;;;;;;;82.18;35.90;;;;;;;;;;5113894;28;20054;-77
2023/03/24 01:25:05;;;;;;;84.90;37.92;;;;;;;;;;5097333;28;20404;-77
2023/03/24 01:27:31;;;;;;;79.30;35.38;;;;;;;;;;5131428;27;20126;-77
2023/03/24 01:30:00;;;;;;;80.78;35.95;;;;;;;;;;5114189;28;20110;-77
2023/03/24 01:32:27;;;;;;;77.22;34.33;;;;;;;;;;5130658;27;20027;-77
2023/03/24 01:34:52;;;;;;;80.85;34.97;;;;;;;;;;5113651;28;20031;-77
2023/03/24 01:37:18;;;;;;;72.25;33.38;;;;;;;;;;5113763;28;20034;-76
2023/03/24 01:39:43;;;;;;;79.60;35.80;;;;;;;;;;5093396;28;20043;-77
2023/03/24 01:42:20;;;;;;;76.50;35.72;;;;;;;;;;5114133;28;20023;-77
2023/03/24 01:44:50;;;;;;;77.18;35.15;;;;;;;;;;5130786;27;20027;-77
2023/03/24 01:47:16;;;;;;;73.80;34.17;;;;;;;;;;5130824;27;20034;-77
2023/03/24 01:49:50;;;;;;;80.45;35.42;;;;;;;;;;5113462;28;20024;-76
2023/03/24 01:52:24;;;;;;;83.57;35.35;;;;;;;;;;5130879;27;20027;-77
2023/03/24 01:54:56;;;;;;;73.93;32.40;;;;;;;;;;5113887;28;20356;-77
2023/03/24 01:57:36;;;;;;;66.47;31.23;;;;;;;;;;5130713;27;20468;-77
2023/03/24 02:00:07;;;;;;;70.68;33.05;;;;;;;;;;5130087;27;20445;-77
2023/03/24 02:02:34;;;;;;;66.32;31.77;;;;;;;;;;5130947;27;20098;-76
2023/03/24 02:05:04;;;;;;;75.40;34.28;;;;;;;;;;5130232;27;20032;-77
2023/03/24 02:07:42;;;;;;;75.20;33.90;;;;;;;;;;5130806;27;20426;-77
2023/03/24 02:10:11;;;;;;;76.00;33.53;;;;;;;;;;5131406;27;20465;-77
2023/03/24 02:12:36;;;;;;;70.00;33.40;;;;;;;;;;5113286;28;20021;-77
2023/03/24 02:15:03;;;;;;;66.13;31.02;;;;;;;;;;5113266;28;20023;-77
2023/03/24 02:18:09;;;;;;;69.47;31.85;;;;;;;;;;5132361;27;20030;-77
2023/03/24 02:21:28;;;;;;;74.25;31.15;;;;;;;;;;5052380;28;20067;-77
2023/03/24 02:24:32;;;;;;;68.28;31.23;;;;;;;;;;5075725;28;20446;-76
2023/03/24 02:27:03;;;;;;;68.10;31.92;;;;;;;;;;5075290;28;20466;-77
2023/03/24 02:29:32;;;;;;;77.95;34.65;;;;;;;;;;5085925;28;20039;-77
2023/03/24 02:32:35;;;;;;;73.40;34.28;;;;;;;;;;5118419;28;20016;-77
2023/03/24 02:35:25;;;;;;;77.95;36.38;;;;;;;;;;5118462;28;20032;-77
2023/03/24 02:38:06;;;;;;;95.82;41.30;;;;;;;;;;5118684;28;20028;-77
2023/03/24 02:40:41;;;;;;;93.05;38.60;;;;;;;;;;5117013;28;20040;-77
2023/03/24 02:43:17;;;;;;;102.93;41.75;;;;;;;;;;5118459;28;20031;-77
2023/03/24 02:45:51;;;;;;;111.40;42.90;;;;;;;;;;5133895;27;20079;-78
2023/03/24 02:48:20;;;;;;;107.65;46.53;;;;;;;;;;5117109;28;20035;-77
2023/03/24 02:51:24;;;;;;;115.75;44.83;;;;;;;;;;5118060;28;20032;-76
2023/03/24 02:54:01;;;;;;;99.82;43.75;;;;;;;;;;5117037;28;20377;-77
2023/03/24 02:56:44;;;;;;;93.53;39.40;;;;;;;;;;5116926;28;20424;-76
2023/03/24 02:59:40;;;;;;;87.07;35.65;;;;;;;;;;5113447;28;20032;-78
2023/03/24 03:02:12;;;;;;;85.38;35.25;;;;;;;;;;5093208;28;20032;-77
2023/03/24 03:04:44;;;;;;;78.45;33.95;;;;;;;;;;5113294;28;20120;-78
2023/03/24 03:07:11;;;;;;;82.38;35.50;;;;;;;;;;5128690;27;20044;-78
2023/03/24 03:09:39;;;;;;;84.75;35.72;;;;;;;;;;5096011;28;20059;-77
2023/03/24 03:12:05;;;;;;;85.70;36.33;;;;;;;;;;5130262;27;20513;-78
2023/03/24 03:14:52;;;;;;;85.22;35.85;;;;;;;;;;5129760;27;20058;-77
2023/03/24 03:17:19;;;;;;;82.28;35.88;;;;;;;;;;5097172;28;20028;-77
2023/03/24 03:19:57;;;;;;;92.55;38.78;;;;;;;;;;5079342;28;20035;-77
2023/03/24 03:22:25;;;;;;;92.13;38.38;;;;;;;;;;5096274;28;20028;-76
2023/03/24 03:24:51;;;;;;;102.95;39.80;;;;;;;;;;5096075;28;20032;-78
2023/03/24 03:27:26;;;;;;;97.10;39.28;;;;;;;;;;5129611;27;20085;-76
2023/03/24 03:30:04;;;;;;;103.35;40.88;;;;;;;;;;5128451;27;20373;-77
2023/03/24 03:32:33;;;;;;;101.75;40.63;;;;;;;;;;5129822;27;20028;-77
2023/03/24 03:35:28;;;;;;;99.97;41.03;;;;;;;;;;5079472;28;20039;-76
2023/03/24 03:38:14;;;;;;;98.32;40.92;;;;;;;;;;5093746;28;20036;-77
2023/03/24 03:40:58;;;;;;;96.90;38.90;;;;;;;;;;5112097;28;20032;-77
2023/03/24 03:43:24;;;;;;;105.30;44.70;;;;;;;;;;5112174;28;20115;-76
2023/03/24 03:45:50;;;;;;;113.32;45.25;;;;;;;;;;5129501;27;20016;-77
2023/03/24 03:48:15;;;;;;;102.28;42.97;;;;;;;;;;5129693;27;20476;-77
2023/03/24 03:50:41;;;;;;;105.40;44.95;;;;;;;;;;5095268;28;20082;-76
2023/03/24 03:53:06;;;;;;;99.82;43.00;;;;;;;;;;5129469;27;20055;-77
2023/03/24 03:55:33;;;;;;;98.47;41.30;;;;;;;;;;5129188;27;20446;-77
2023/03/24 03:58:00;;;;;;;91.88;40.80;;;;;;;;;;5111896;28;20031;-76
2023/03/24 04:00:25;;;;;;;88.35;37.30;;;;;;;;;;5078277;28;20400;-78
2023/03/24 04:03:21;;;;;;;95.63;40.58;;;;;;;;;;5097892;28;20027;-76
2023/03/24 04:05:56;;;;;;;97.80;41.88;;;;;;;;;;5098575;28;20031;-77
2023/03/24 04:08:28;;;;;;;97.15;40.47;;;;;;;;;;5098833;28;20035;-77
2023/03/24 04:11:01;;;;;;;91.95;38.60;;;;;;;;;;5115077;28;20027;-78
2023/03/24 04:13:48;;;;;;;89.63;38.78;;;;;;;;;;5098348;28;20092;-77
2023/03/24 04:16:19;;;;;;;80.53;36.25;;;;;;;;;;5116429;28;20023;-77
2023/03/24 04:18:51;;;;;;;82.45;35.05;;;;;;;;;;5116367;28;20035;-77
2023/03/24 04:21:27;;;;;;;80.32;35.88;;;;;;;;;;5098287;28;20031;-77
2023/03/24 04:24:04;;;;;;;79.38;35.70;;;;;;;;;;5116243;28;20400;-77
2023/03/24 04:26:53;;;;;;;78.53;35.53;;;;;;;;;;5114781;28;20059;-77
2023/03/24 04:29:45;;;;;;;81.45;35.85;;;;;;;;;;5115152;28;20028;-77
2023/03/24 04:32:20;;;;;;;88.07;37.53;;;;;;;;;;5115974;28;20364;-78
2023/03/24 04:34:49;;;;;;;82.07;38.25;;;;;;;;;;5114851;28;20019;-76
2023/03/24 04:37:25;;;;;;;89.88;40.28;;;;;;;;;;5081309;28;20046;-77
2023/03/24 04:39:52;;;;;;;93.88;40.67;;;;;;;;;;5097617;28;20046;-78
2023/03/24 04:42:24;;;;;;;97.93;47.10;;;;;;;;;;5097975;28;20122;-77
2023/03/24 04:44:50;;;;;;;100.82;45.17;;;;;;;;;;5097919;28;20027;-78
2023/03/24 04:47:18;;;;;;;99.70;45.22;;;;;;;;;;5097839;28;20468;-77
2023/03/24 04:49:43;;;;;;;107.57;45.47;;;;;;;;;;5097729;28;20436;-78
2023/03/24 04:52:09;;;;;;;104.35;44.42;;;;;;;;;;5097433;28;20076;-77
2023/03/24 04:54:34;;;;;;;96.53;43.90;;;;;;;;;;5114453;28;20021;-78
2023/03/24 04:57:00;;;;;;;91.00;42.55;;;;;;;;;;5114348;28;20027;-78
2023/03/24 04:59:27;;;;;;;86.68;38.80;;;;;;;;;;5097457;28;20019;-77
2023/03/24 05:01:52;;;;;;;78.30;36.42;;;;;;;;;;5115552;28;20020;-78
2023/03/24 05:04:19;;;;;;;92.95;37.92;;;;;;;;;;5076526;28;20030;-78
2023/03/24 05:06:48;;;;;;;79.85;37.42;;;;;;;;;;5114037;28;20141;-77
2023/03/24 05:09:18;;;;;;;76.53;36.72;;;;;;;;;;5097353;28;20342;-77
2023/03/24 05:11:44;;;;;;;82.53;35.13;;;;;;;;;;5114375;27;20074;-77
2023/03/24 05:14:10;;;;;;;72.95;35.30;;;;;;;;;;5110794;28;20693;-78
2023/03/24 05:16:35;;;;;;;75.88;35.50;;;;;;;;;;5113742;28;20031;-77
2023/03/24 05:19:01;;;;;;;67.93;34.00;;;;;;;;;;5096831;28;20031;-77
2023/03/24 05:21:27;;;;;;;70.82;34.25;;;;;;;;;;5079970;28;20129;-77
2023/03/24 05:23:52;;;;;;;81.85;35.75;;;;;;;;;;5113743;28;20165;-78
2023/03/24 05:26:18;;;;;;;90.90;40.42;;;;;;;;;;5096018;28;20069;-78
2023/03/24 05:28:43;;;;;;;83.68;38.05;;;;;;;;;;5112702;28;20059;-78
2023/03/24 05:31:08;;;;;;;79.15;37.13;;;;;;;;;;5113284;28;20027;-78
2023/03/24 05:33:34;;;;;;;84.78;38.83;;;;;;;;;;5115103;28;20035;-86
2023/03/24 05:36:00;;;;;;;87.90;40.22;;;;;;;;;;5130074;27;20031;-84
2023/03/24 05:38:26;;;;;;;89.82;41.63;;;;;;;;;;5113711;28;20334;-83
2023/03/24 05:40:51;;;;;;;90.82;42.33;;;;;;;;;;5108198;28;20043;-85
2023/03/24 05:43:16;;;;;;;85.57;38.00;;;;;;;;;;5079421;28;20471;-84
2023/03/24 05:45:43;;;;;;;75.07;35.85;;;;;;;;;;5114568;28;20032;-84
2023/03/24 05:48:09;;;;;;;75.57;35.90;;;;;;;;;;5116363;28;20065;-83
2023/03/24 05:50:35;;;;;;;75.30;34.83;;;;;;;;;;5085268;28;20039;-84
2023/03/24 05:53:01;;;;;;;77.20;35.20;;;;;;;;;;5117679;27;20094;-85
2023/03/24 05:55:27;;;;;;;71.32;33.22;;;;;;;;;;5111777;28;20035;-82
2023/03/24 05:57:55;;;;;;;74.03;33.58;;;;;;;;;;5120098;28;20031;-84
2023/03/24 06:00:25;;;;;;;70.95;35.10;;;;;;;;;;5119109;28;20018;-85
2023/03/24 06:02:50;;;;;;;76.05;35.00;;;;;;;;;;5100196;28;20031;-84
2023/03/24 06:05:19;;;;;;;68.10;32.10;;;;;;;;;;5115817;28;20019;-83
2023/03/24 06:08:00;;;;;;;67.65;32.40;;;;;;;;;;5107117;28;20038;-88
2023/03/24 06:10:26;;;;;;;66.70;33.20;;;;;;;;;;5111449;28;20036;-85
2023/03/24 06:12:53;;;;;;;64.55;31.55;;;;;;;;;;5102607;28;20043;-84
2023/03/24 06:15:20;;;;;;;76.82;36.03;;;;;;;;;;5090265;28;20584;-85
2023/03/24 06:17:46;;;;;;;76.70;35.28;;;;;;;;;;5097637;28;20357;-85
2023/03/24 06:20:14;;;;;;;65.10;33.30;;;;;;;;;;5112988;28;20024;-86
2023/03/24 06:22:43;;;;;;;69.78;33.50;;;;;;;;;;5096064;28;20302;-85
2023/03/24 06:25:12;;;;;;;67.07;33.47;;;;;;;;;;5112024;28;20048;-84
2023/03/24 06:27:44;;;;;;;59.60;31.73;;;;;;;;;;5094037;28;20164;-85
2023/03/24 06:30:15;;;;;;;65.15;32.35;;;;;;;;;;5110069;28;20274;-78
2023/03/24 06:32:45;;;;;;;68.53;33.22;;;;;;;;;;5109282;28;20024;-78
2023/03/24 06:35:12;;;;;;;69.25;33.53;;;;;;;;;;5111865;28;20036;-78
2023/03/24 06:37:38;;;;;;;69.82;35.33;;;;;;;;;;5110112;28;20031;-79
2023/03/24 06:40:06;;;;;;;68.32;34.28;;;;;;;;;;5093822;28;20051;-78
2023/03/24 06:42:31;;;;;;;66.05;33.70;;;;;;;;;;5113169;28;20031;-78
2023/03/24 06:44:57;;;;;;;67.20;36.90;;;;;;;;;;5076228;28;21325;-77
2023/03/24 06:47:23;;;;;;;72.18;33.83;;;;;;;;;;5107919;28;20074;-79
2023/03/24 06:49:49;;;;;;;62.70;35.78;;;;;;;;;;5093059;28;20051;-79
2023/03/24 06:52:17;;;;;;;67.80;36.20;;;;;;;;;;5092730;28;20028;-79
2023/03/24 06:54:43;;;;;;;70.50;37.90;;;;;;;;;;5097683;28;20047;-78
2023/03/24 06:57:08;;;;;;;74.88;39.38;;;;;;;;;;5111344;28;20096;-78
2023/03/24 06:59:37;;;;;;;78.35;40.85;;;;;;;;;;5109601;28;20552;-77
2023/03/24 07:02:03;;;;;;;91.82;42.53;;;;;;;;;;5111206;28;20058;-78
2023/03/24 07:04:35;;;;;;;85.25;42.78;;;;;;;;;;5116277;28;20452;-79
2023/03/24 07:07:00;;;;;;;84.97;44.58;;;;;;;;;;5107639;28;20070;-78
2023/03/24 07:09:26;;;;;;;82.15;44.08;;;;;;;;;;5110640;28;20063;-77
2023/03/24 07:11:55;;;;;;;86.18;46.25;;;;;;;;;;5100175;28;20036;-79
2023/03/24 07:14:25;;;;;;;91.80;50.17;;;;;;;;;;5101172;28;20480;-78
2023/03/24 07:16:52;;;;;;;90.53;46.00;;;;;;;;;;5108365;28;20361;-77
2023/03/24 07:19:17;;;;;;;103.82;59.15;;;;;;;;;;5106739;28;20034;-78
2023/03/24 07:21:45;;;;;;;93.32;46.30;;;;;;;;;;5113173;28;20035;-78
2023/03/24 07:24:11;;;;;;;87.97;44.67;;;;;;;;;;5098953;28;20035;-78
2023/03/24 07:26:36;;;;;;;89.28;46.35;;;;;;;;;;5115211;27;20036;-79
2023/03/24 07:29:02;;;;;;;83.40;45.28;;;;;;;;;;5115415;28;20502;-79
2023/03/24 07:31:28;;;;;;;97.07;45.92;;;;;;;;;;5096458;28;20035;-76
2023/03/24 07:33:53;;;;;;;123.68;54.42;;;;;;;;;;5111885;28;20115;-80
2023/03/24 07:36:19;;;;;;;97.70;47.97;;;;;;;;;;5113020;28;20046;-78
2023/03/24 07:38:44;;;;;;;96.00;49.38;;;;;;;;;;5111985;28;20047;-78
2023/03/24 07:41:10;;;;;;;96.82;49.80;;;;;;;;;;5111663;28;20426;-78
2023/03/24 07:43:35;;;;;;;96.50;51.72;;;;;;;;;;5089227;28;20032;-78
2023/03/24 07:46:01;;;;;;;101.63;53.55;;;;;;;;;;5103174;28;20059;-79
2023/03/24 07:48:26;;;;;;;101.28;55.80;;;;;;;;;;5107648;28;20644;-78
2023/03/24 07:50:54;;;;;;;106.72;56.65;;;;;;;;;;5102269;28;20388;-79
2023/03/24 07:53:23;;;;;;;95.50;52.80;;;;;;;;;;5110886;28;20023;-78
2023/03/24 07:55:49;;;;;;;101.07;54.45;;;;;;;;;;5090448;28;20034;-78
2023/03/24 07:58:14;;;;;;;112.72;55.95;;;;;;;;;;5088922;28;20414;-78
2023/03/24 08:00:40;;;;;;;115.60;56.33;;;;;;;;;;5088026;28;20024;-79
2023/03/24 08:03:08;;;;;;;113.10;57.45;;;;;;;;;;5095449;28;20521;-78
2023/03/24 08:05:33;;;;;;;111.80;57.53;;;;;;;;;;5122499;27;20108;-78
2023/03/24 08:07:59;;;;;;;111.07;56.10;;;;;;;;;;5109458;28;20637;-76
2023/03/24 08:10:28;;;;;;;111.45;57.00;;;;;;;;;;5112644;28;20030;-77
2023/03/24 08:13:00;;;;;;;120.88;58.58;;;;;;;;;;5112815;28;20071;-77
2023/03/24 08:15:26;;;;;;;112.10;56.05;;;;;;;;;;5092340;28;20035;-77
2023/03/24 08:17:51;;;;;;;116.53;59.45;;;;;;;;;;5112689;28;20042;-78
2023/03/24 08:20:18;;;;;;;112.70;57.47;;;;;;;;;;5096375;28;20431;-77
2023/03/24 08:22:48;;;;;;;113.97;55.95;;;;;;;;;;5115581;28;20081;-77
2023/03/24 08:25:14;;;;;;;109.97;56.50;;;;;;;;;;5097625;28;20088;-77
2023/03/24 08:27:42;;;;;;;118.88;57.42;;;;;;;;;;5097470;28;20032;-76
2023/03/24 08:30:09;;;;;;;116.22;57.10;;;;;;;;;;5114766;28;20035;-78
2023/03/24 08:32:34;;;;;;;113.90;58.65;;;;;;;;;;5114403;28;20303;-78
2023/03/24 08:35:04;;;;;;;119.85;55.55;;;;;;;;;;5112864;28;20053;-78
2023/03/24 08:37:30;;;;;;;110.10;55.13;;;;;;;;;;5111454;28;20372;-79
2023/03/24 08:39:57;;;;;;;106.45;53.85;;;;;;;;;;5092078;28;20302;-78
2023/03/24 08:42:24;;;;;;;130.90;54.35;;;;;;;;;;5111212;28;20024;-77
2023/03/24 08:44:50;;;;;;;115.72;52.40;;;;;;;;;;5093847;28;20019;-77
2023/03/24 08:47:16;;;;;;;104.97;53.17;;;;;;;;;;5115045;27;20027;-77
2023/03/24 08:49:41;;;;;;;118.35;54.95;;;;;;;;;;5135565;27;20031;-78
2023/03/24 08:52:07;;;;;;;126.70;60.72;;;;;;;;;;5134376;27;20359;-77
2023/03/24 08:54:33;;;;;;;122.63;58.15;;;;;;;;;;5132295;27;20087;-79
2023/03/24 08:56:58;;;;;;;116.22;53.70;;;;;;;;;;5134973;27;20429;-79
2023/03/24 08:59:24;;;;;;;104.95;50.28;;;;;;;;;;5126905;27;20022;-78
2023/03/24 09:01:49;;;;;;;107.32;53.35;;;;;;;;;;5107765;28;20023;-79
2023/03/24 09:04:15;;;;;;;115.07;54.25;;;;;;;;;;5106701;28;20036;-77
2023/03/24 09:06:41;;;;;;;109.50;50.80;;;;;;;;;;5103995;27;20453;-77
2023/03/24 09:09:06;;;;;;;95.65;45.03;;;;;;;;;;5106212;27;20035;-77
2023/03/24 09:11:32;;;;;;;70.97;34.70;;;;;;;;;;5108284;28;20019;-78
2023/03/24 09:13:57;;;;;;;76.90;35.45;;;;;;;;;;5107714;28;20134;-78
2023/03/24 09:16:23;;;;;;;92.30;44.97;;;;;;;;;;5108554;27;20470;-78
2023/03/24 09:18:48;;;;;;;96.10;45.95;;;;;;;;;;5107889;28;20726;-77
2023/03/24 09:21:14;;;;;;;96.00;45.67;;;;;;;;;;5109034;28;20589;-76
2023/03/24 09:23:39;;;;;;;89.97;42.58;;;;;;;;;;5075270;28;20730;-79
2023/03/24 09:26:06;;;;;;;117.13;50.08;;;;;;;;;;5110625;28;20413;-78
2023/03/24 09:28:31;;;;;;;94.70;44.47;;;;;;;;;;5109823;28;20192;-78
2023/03/24 09:30:58;;;;;;;83.15;37.42;;;;;;;;;;5110732;28;20539;-78
2023/03/24 09:33:24;;;;;;;83.95;38.03;;;;;;;;;;5111073;28;20031;-76
2023/03/24 09:35:57;;;;;;;99.10;42.83;;;;;;;;;;5090176;28;20058;-78
2023/03/24 09:38:24;;;;;;;104.28;44.60;;;;;;;;;;5111243;28;20060;-78
2023/03/24 09:40:56;;;;;;;98.38;47.03;;;;;;;;;;5111795;28;20031;-77
2023/03/24 09:43:42;;;;;;;100.30;47.10;;;;;;;;;;5113105;28;20076;-77
2023/03/24 09:46:14;;;;;;;102.35;47.13;;;;;;;;;;5103982;28;20535;-78
2023/03/24 09:48:46;;;;;;;82.43;41.00;;;;;;;;;;5111830;28;20111;-79
2023/03/24 09:51:15;;;;;;;77.38;38.38;;;;;;;;;;5113496;28;20373;-77
2023/03/24 09:53:50;;;;;;;94.90;41.40;;;;;;;;;;5113374;28;20049;-77
2023/03/24 09:56:16;;;;;;;97.00;42.03;;;;;;;;;;5114111;27;20054;-77
2023/03/24 09:58:42;;;;;;;93.38;40.72;;;;;;;;;;5109605;27;20097;-77
2023/03/24 10:01:15;;;;;;;90.75;42.20;;;;;;;;;;5093446;28;20031;-79
2023/03/24 10:03:50;;;;;;;101.93;45.55;;;;;;;;;;5113121;28;20051;-79
2023/03/24 10:06:21;;;;;;;91.55;42.10;;;;;;;;;;5096685;28;20043;-80
2023/03/24 10:09:06;;;;;;;93.85;42.42;;;;;;;;;;5098463;28;20463;-78
2023/03/24 10:12:02;;;;;;;75.90;36.15;;;;;;;;;;5106390;28;20027;-80
2023/03/24 10:17:00;;;;;;;93.07;41.60;;;;;;;;;;5118224;22;20060;-79
2023/03/24 10:19:35;;;;;;;82.47;35.80;;;;;;;;;;5042130;28;20029;-79
2023/03/24 10:22:18;;;;;;;81.82;34.55;;;;;;;;;;5057505;28;20037;-79
2023/03/24 10:25:33;;;;;;;79.63;36.40;;;;;;;;;;5071946;28;20039;-81
2023/03/24 10:28:06;;;;;;;79.93;36.33;;;;;;;;;;5093316;28;20458;-77
2023/03/24 10:30:56;;;;;;;82.82;38.08;;;;;;;;;;5084090;28;20462;-80
2023/03/24 10:33:24;;;;;;;78.80;35.42;;;;;;;;;;5076866;28;20033;-79
2023/03/24 10:36:17;;;;;;;75.95;35.63;;;;;;;;;;5042200;28;20055;-81
2023/03/24 10:38:43;;;;;;;77.65;37.88;;;;;;;;;;5061708;28;20083;-81
2023/03/24 10:41:19;;;;;;;83.35;37.70;;;;;;;;;;5073538;28;20055;-80
2023/03/24 10:43:49;;;;;;;79.15;34.25;;;;;;;;;;5092016;28;20411;-80
2023/03/24 10:46:16;;;;;;;82.35;36.97;;;;;;;;;;5074148;28;20047;-79
2023/03/24 10:48:46;;;;;;;85.57;36.72;;;;;;;;;;5089549;28;20120;-80
2023/03/24 10:51:15;;;;;;;84.32;34.47;;;;;;;;;;5114732;28;20027;-76
2023/03/24 10:53:42;;;;;;;65.60;31.17;;;;;;;;;;5097667;28;20038;-78
2023/03/24 10:56:08;;;;;;;71.53;32.55;;;;;;;;;;5093161;28;20465;-79
2023/03/24 10:58:38;;;;;;;62.33;31.27;;;;;;;;;;5088952;28;20191;-80
2023/03/24 11:01:19;;;;;;;68.25;29.10;;;;;;;;;;5097021;28;20040;-78
2023/03/24 11:03:46;;;;;;;66.45;30.38;;;;;;;;;;5071217;28;20024;-80
2023/03/24 11:06:12;;;;;;;63.70;30.77;;;;;;;;;;5092729;28;20028;-79
2023/03/24 11:08:38;;;;;;;62.58;28.92;;;;;;;;;;5057104;28;20138;-79
2023/03/24 11:11:23;;;;;;;51.03;24.63;;;;;;;;;;5075240;28;20028;-78
2023/03/24 11:14:00;;;;;;;51.35;23.38;;;;;;;;;;5093015;28;20438;-79
2023/03/24 11:16:35;;;;;;;48.50;23.13;;;;;;;;;;5078516;28;20496;-78
2023/03/24 11:19:03;;;;;;;48.28;22.50;;;;;;;;;;5096637;28;20028;-78
2023/03/24 11:21:36;;;;;;;47.67;22.77;;;;;;;;;;5098530;28;20032;-79
2023/03/24 11:24:05;;;;;;;48.35;23.85;;;;;;;;;;5081340;28;20413;-79
2023/03/24 11:26:33;;;;;;;44.15;21.00;;;;;;;;;;5063152;28;20450;-79
2023/03/24 11:29:06;;;;;;;42.03;20.05;;;;;;;;;;5053493;28;20125;-78
2023/03/24 11:31:37;;;;;;;43.55;20.00;;;;;;;;;;5041279;28;20450;-78
2023/03/24 11:34:07;;;;;;;39.13;18.85;;;;;;;;;;5025722;28;20500;-80
2023/03/24 11:36:41;;;;;;;39.88;18.48;;;;;;;;;;5056092;28;20025;-78
2023/03/24 11:39:16;;;;;;;39.50;19.98;;;;;;;;;;5064841;28;20040;-77
2023/03/24 11:41:44;;;;;;;43.83;19.98;;;;;;;;;;5093411;28;20477;-78
2023/03/24 11:44:19;;;;;;;38.78;20.50;;;;;;;;;;5076048;28;20395;-76
2023/03/24 11:46:51;;;;;;;41.67;20.15;;;;;;;;;;5092312;28;20032;-78
2023/03/24 11:49:18;;;;;;;38.13;19.85;;;;;;;;;;5070710;28;20036;-78
2023/03/24 11:51:45;;;;;;;36.25;19.20;;;;;;;;;;5040161;28;20469;-78
2023/03/24 11:54:15;;;;;;;38.85;17.75;;;;;;;;;;5061536;28;20030;-77
2023/03/24 11:56:45;;;;;;;43.00;19.58;;;;;;;;;;5077142;28;20045;-78
2023/03/24 11:59:48;;;;;;;42.00;19.83;;;;;;;;;;5074714;28;20126;-78
2023/03/24 12:02:35;;;;;;;34.92;18.58;;;;;;;;;;5096250;28;20031;-78
2023/03/24 12:05:22;;;;;;;35.60;18.33;;;;;;;;;;5073173;28;20028;-76
2023/03/24 12:08:05;;;;;;;33.60;18.40;;;;;;;;;;5093463;28;20020;-79
2023/03/24 12:10:34;;;;;;;32.38;18.33;;;;;;;;;;5093006;28;20467;-78
2023/03/24 12:13:00;;;;;;;31.55;17.13;;;;;;;;;;5077175;28;20036;-78
2023/03/24 12:15:53;;;;;;;35.95;16.65;;;;;;;;;;5077924;28;20040;-77
2023/03/24 12:18:38;;;;;;;35.47;15.85;;;;;;;;;;5063269;28;20042;-76
2023/03/24 12:21:26;;;;;;;29.90;15.80;;;;;;;;;;5062488;28;20024;-77
2023/03/24 12:24:01;;;;;;;32.63;15.63;;;;;;;;;;5070625;28;20470;-77
2023/03/24 12:26:27;;;;;;;30.42;16.08;;;;;;;;;;5060054;28;20601;-77
2023/03/24 12:29:32;;;;;;;34.55;15.80;;;;;;;;;;5038922;28;20063;-77
2023/03/24 12:32:23;;;;;;;31.48;15.10;;;;;;;;;;5074871;28;20077;-76
2023/03/24 12:34:58;;;;;;;37.80;15.02;;;;;;;;;;5074629;28;20074;-78
2023/03/24 12:37:28;;;;;;;25.42;13.60;;;;;;;;;;5074906;28;20034;-77
2023/03/24 12:40:12;;;;;;;29.90;14.23;;;;;;;;;;5075119;28;20024;-76
2023/03/24 12:42:46;;;;;;;30.77;14.80;;;;;;;;;;5075067;28;20298;-76
2023/03/24 12:45:25;;;;;;;28.92;14.35;;;;;;;;;;5057062;28;20028;-78
2023/03/24 12:48:11;;;;;;;29.73;13.15;;;;;;;;;;5056457;28;20111;-77
2023/03/24 12:51:06;;;;;;;28.67;13.70;;;;;;;;;;5056467;28;20021;-78
2023/03/24 12:53:56;;;;;;;25.42;11.95;;;;;;;;;;5043772;28;20038;-77
2023/03/24 12:56:35;;;;;;;28.67;13.25;;;;;;;;;;5057499;28;20051;-77
2023/03/24 12:59:03;;;;;;;28.40;13.13;;;;;;;;;;5039868;28;20043;-76
2023/03/24 13:01:40;;;;;;;25.63;13.57;;;;;;;;;;5040340;28;20036;-79
2023/03/24 13:04:34;;;;;;;31.98;14.32;;;;;;;;;;5057628;28;20055;-79
2023/03/24 13:07:13;;;;;;;32.53;12.45;;;;;;;;;;5058618;28;20028;-79
2023/03/24 13:09:54;;;;;;;27.70;12.73;;;;;;;;;;5059253;28;20070;-77
2023/03/24 13:12:26;;;;;;;37.17;12.82;;;;;;;;;;5058596;28;20193;-79
2023/03/24 13:15:01;;;;;;;27.15;12.55;;;;;;;;;;5058420;28;20119;-78
2023/03/24 13:17:32;;;;;;;32.72;12.75;;;;;;;;;;5075037;28;20055;-79
2023/03/24 13:20:05;;;;;;;19.85;9.82;;;;;;;;;;5056397;28;20044;-79
2023/03/24 13:22:31;;;;;;;23.45;10.68;;;;;;;;;;5057812;28;20035;-79
2023/03/24 13:24:56;;;;;;;22.42;10.93;;;;;;;;;;5056529;28;20119;-79
2023/03/24 13:27:23;;;;;;;22.50;10.63;;;;;;;;;;5039830;28;20033;-77
2023/03/24 13:30:26;;;;;;;28.05;11.45;;;;;;;;;;5056616;28;20542;-78
2023/03/24 13:32:53;;;;;;;28.48;11.75;;;;;;;;;;5074506;28;20031;-79
2023/03/24 13:35:47;;;;;;;25.35;11.13;;;;;;;;;;5057794;28;20029;-79
2023/03/24 13:38:26;;;;;;;25.88;11.55;;;;;;;;;;5068774;28;20052;-78
2023/03/24 13:41:31;;;;;;;26.38;11.32;;;;;;;;;;5077500;28;20024;-79
2023/03/24 13:44:08;;;;;;;25.02;11.82;;;;;;;;;;5093105;28;20437;-77
2023/03/24 13:46:37;;;;;;;27.70;11.50;;;;;;;;;;5061766;28;20145;-77
2023/03/24 13:49:04;;;;;;;21.67;11.55;;;;;;;;;;5060764;28;20030;-78
2023/03/24 13:51:34;;;;;;;23.35;10.98;;;;;;;;;;5076429;28;20032;-78
2023/03/24 13:54:03;;;;;;;21.35;10.20;;;;;;;;;;5043653;28;20020;-77
2023/03/24 13:56:34;;;;;;;25.23;11.30;;;;;;;;;;5076091;28;20059;-79
2023/03/24 13:59:31;;;;;;;23.02;11.48;;;;;;;;;;5043027;28;20028;-78
2023/03/24 14:02:19;;;;;;;22.67;11.60;;;;;;;;;;5059462;28;20089;-79
2023/03/24 14:05:00;;;;;;;27.58;12.52;;;;;;;;;;5094116;28;20027;-78
2023/03/24 14:07:31;;;;;;;43.35;13.70;;;;;;;;;;5076249;28;20043;-79
2023/03/24 14:10:10;;;;;;;33.30;14.40;;;;;;;;;;5060099;28;20031;-78
2023/03/24 14:12:36;;;;;;;31.17;13.55;;;;;;;;;;5060053;28;20064;-79
2023/03/24 14:15:14;;;;;;;29.55;12.68;;;;;;;;;;5059318;28;20035;-78
2023/03/24 14:17:42;;;;;;;24.70;12.00;;;;;;;;;;5059920;28;20028;-78
2023/03/24 14:20:10;;;;;;;23.58;11.40;;;;;;;;;;5058841;28;20028;-78
2023/03/24 14:22:40;;;;;;;23.98;10.50;;;;;;;;;;5093808;28;20024;-80
2023/03/24 14:25:16;;;;;;;;;;;;;;;;;;5059639;28;20141;-80
2023/03/24 14:27:52;;;;;;;17.98;10.65;;;;;;;;;;5075777;28;19938;-78
2023/03/24 14:30:24;;;;;;;25.98;10.60;;;;;;;;;;5076278;28;20403;-79
2023/03/24 14:32:57;;;;;;;20.67;11.18;;;;;;;;;;5076144;28;20032;-79
2023/03/24 14:35:43;;;;;;;26.17;12.45;;;;;;;;;;5058866;28;20048;-78
2023/03/24 14:38:14;;;;;;;26.90;12.93;;;;;;;;;;5074532;28;20064;-79
2023/03/24 14:40:41;;;;;;;33.42;11.73;;;;;;;;;;5093961;28;20458;-79
2023/03/24 14:43:49;;;;;;;28.52;12.50;;;;;;;;;;5059035;28;20023;-80
2023/03/24 14:46:21;;;;;;;24.52;11.35;;;;;;;;;;5079379;28;20469;-79